Time;durP1;ratioP1;P1;durP2;ratioP2;P2;SDS_P1;SDS_P2;PMS_P1;PMS_P2;Temp;Humidity;BMP_temperature;BMP_pressure;BME280_temperature;BME280_humidity;BME280_pressure;Samples;Min_cycle;Max_cycle;Signal;HPM_P1;HPM_P2
2022/05/21 00:00:42;;;;;;;13.15;7.40;;;13.80;99.90;;;;;;5077254;28;20472;-53
2022/05/21 00:03:09;;;;;;;11.68;7.10;;;13.70;99.90;;;;;;5077206;28;20033;-53
2022/05/21 00:05:37;;;;;;;12.95;6.90;;;13.70;99.90;;;;;;5077103;28;20071;-54
2022/05/21 00:08:04;;;;;;;13.80;7.07;;;13.60;99.90;;;;;;5077229;28;20028;-53
2022/05/21 00:10:31;;;;;;;11.43;6.80;;;13.60;99.90;;;;;;5077306;28;20101;-53
2022/05/21 00:12:59;;;;;;;11.75;7.38;;;13.60;99.90;;;;;;5077161;28;20032;-53
2022/05/21 00:15:29;;;;;;;12.43;7.00;;;13.60;99.90;;;;;;5077190;28;20039;-53
2022/05/21 00:17:55;;;;;;;15.13;7.82;;;13.50;99.90;;;;;;5077167;28;20029;-53
2022/05/21 00:23:14;;;;;;;12.18;7.38;;;13.40;99.90;;;;;;5077020;28;20062;-53
2022/05/21 00:25:42;;;;;;;9.82;6.90;;;13.40;99.90;;;;;;5077021;28;20490;-53
2022/05/21 00:28:09;;;;;;;15.90;8.57;;;13.40;99.90;;;;;;5076855;28;20033;-53
2022/05/21 00:30:35;;;;;;;15.80;9.40;;;13.40;99.90;;;;;;5076970;28;20043;-54
2022/05/21 00:33:02;;;;;;;18.30;10.68;;;13.40;99.90;;;;;;5076932;28;20466;-53
2022/05/21 00:35:28;;;;;;;18.67;10.57;;;13.40;99.90;;;;;;5076760;28;20067;-53
2022/05/21 00:37:55;;;;;;;19.33;10.80;;;13.40;99.90;;;;;;5076894;28;20067;-53
2022/05/21 00:40:22;;;;;;;16.17;8.60;;;13.40;99.90;;;;;;5076797;28;20025;-53
2022/05/21 00:42:49;;;;;;;11.93;8.35;;;13.40;99.90;;;;;;5075898;28;20066;-53
2022/05/21 00:45:16;;;;;;;14.80;8.82;;;13.40;99.90;;;;;;5076599;28;20020;-53
2022/05/21 00:47:42;;;;;;;21.58;8.52;;;13.40;99.90;;;;;;5076657;28;20524;-53
2022/05/21 00:50:11;;;;;;;12.93;7.90;;;13.40;99.90;;;;;;5076689;28;20024;-54
2022/05/21 00:52:39;;;;;;;17.13;8.90;;;13.40;99.90;;;;;;5076579;28;20105;-53
2022/05/21 00:55:13;;;;;;;16.98;8.75;;;13.40;99.90;;;;;;5076456;28;20115;-53
2022/05/21 00:57:42;;;;;;;21.65;8.25;;;13.40;99.90;;;;;;5076305;28;20076;-53
2022/05/21 01:00:19;;;;;;;15.45;7.97;;;13.40;99.90;;;;;;5076282;28;20481;-53
2022/05/21 01:02:52;;;;;;;15.35;8.07;;;13.30;99.90;;;;;;5076372;28;20090;-53
2022/05/21 01:05:22;;;;;;;14.10;7.20;;;13.30;99.90;;;;;;5076134;28;20386;-53
2022/05/21 01:07:53;;;;;;;15.53;8.03;;;13.30;99.90;;;;;;5076311;28;20032;-53
2022/05/21 01:10:21;;;;;;;16.85;8.57;;;13.20;99.90;;;;;;5076040;28;20087;-54
2022/05/21 01:12:50;;;;;;;16.52;9.15;;;13.30;99.90;;;;;;5076129;28;20035;-53
2022/05/21 01:15:28;;;;;;;22.08;9.45;;;13.30;99.90;;;;;;5076238;28;20029;-53
2022/05/21 01:17:54;;;;;;;16.38;8.25;;;13.30;99.90;;;;;;5075674;28;20036;-53
2022/05/21 01:20:23;;;;;;;17.00;8.43;;;13.30;99.90;;;;;;5076043;28;20037;-53
2022/05/21 01:22:51;;;;;;;12.15;7.30;;;13.30;99.90;;;;;;5075596;28;20366;-53
2022/05/21 01:25:22;;;;;;;12.80;7.80;;;13.10;99.90;;;;;;5075710;28;20546;-53
2022/05/21 01:27:49;;;;;;;;;;;13.10;99.90;;;;;;5076239;28;20033;-53
2022/05/21 01:30:26;;;;;;;35.13;14.35;;;13.10;99.90;;;;;;5075602;28;19908;-53
2022/05/21 01:32:52;;;;;;;24.98;11.90;;;13.10;99.90;;;;;;5075560;28;20032;-53
2022/05/21 01:35:19;;;;;;;19.13;9.25;;;13.10;99.90;;;;;;5075506;28;20477;-53
2022/05/21 01:37:47;;;;;;;12.90;7.97;;;13.00;99.90;;;;;;5075315;28;20094;-53
2022/05/21 01:40:15;;;;;;;14.68;8.55;;;12.90;99.90;;;;;;5075508;28;20470;-53
2022/05/21 01:42:41;;;;;;;19.00;9.38;;;12.90;99.90;;;;;;5075573;28;20040;-53
2022/05/21 01:45:07;;;;;;;27.25;12.73;;;12.90;99.90;;;;;;5075493;28;20051;-53
2022/05/21 01:47:34;;;;;;;25.85;12.77;;;12.90;99.90;;;;;;5075557;28;20058;-53
2022/05/21 01:50:01;;;;;;;26.27;11.70;;;12.90;99.90;;;;;;5075406;28;20032;-53
2022/05/21 01:52:27;;;;;;;22.60;11.07;;;12.90;99.90;;;;;;5075291;28;20028;-53
2022/05/21 01:54:53;;;;;;;18.00;9.85;;;12.90;99.90;;;;;;5074313;28;20032;-53
2022/05/21 01:57:19;;;;;;;19.58;10.82;;;12.80;99.90;;;;;;5075205;28;20039;-53
2022/05/21 01:59:45;;;;;;;34.47;15.18;;;12.80;99.90;;;;;;5075219;28;20390;-53
2022/05/21 02:02:11;;;;;;;28.70;11.85;;;12.80;99.90;;;;;;5075144;28;20033;-53
2022/05/21 02:04:37;;;;;;;18.83;9.80;;;12.80;99.90;;;;;;5074999;28;20105;-53
2022/05/21 02:07:04;;;;;;;18.27;9.38;;;12.70;99.90;;;;;;5075106;28;20104;-53
2022/05/21 02:09:30;;;;;;;16.27;9.32;;;12.70;99.90;;;;;;5075200;28;20101;-53
2022/05/21 02:11:56;;;;;;;34.38;15.35;;;12.70;99.90;;;;;;5075147;28;20506;-53
2022/05/21 02:14:22;;;;;;;29.23;15.15;;;12.70;99.90;;;;;;5074909;28;20027;-53
2022/05/21 02:16:48;;;;;;;35.90;15.13;;;12.70;99.90;;;;;;5074894;28;20036;-53
2022/05/21 02:19:14;;;;;;;24.98;12.10;;;12.60;99.90;;;;;;5074946;28;20115;-53
2022/05/21 02:21:40;;;;;;;23.38;10.77;;;12.60;99.90;;;;;;5074829;28;20047;-53
2022/05/21 02:24:10;;;;;;;20.08;10.57;;;12.50;99.90;;;;;;5075071;28;20032;-53
2022/05/21 02:26:38;;;;;;;20.67;10.75;;;12.50;99.90;;;;;;5074757;28;20063;-53
2022/05/21 02:29:06;;;;;;;23.80;11.05;;;12.40;99.90;;;;;;5074518;28;20032;-53
2022/05/21 02:31:32;;;;;;;30.98;10.80;;;12.30;99.90;;;;;;5074696;28;20028;-53
2022/05/21 02:33:58;;;;;;;20.38;9.43;;;12.30;99.90;;;;;;5074723;28;20044;-53
2022/05/21 02:39:26;;;;;;;19.52;9.02;;;12.20;99.90;;;;;;5063070;28;20072;-53
2022/05/21 02:41:52;;;;;;;16.88;8.63;;;12.10;99.90;;;;;;5074420;28;20024;-53
2022/05/21 02:44:18;;;;;;;12.05;8.07;;;12.10;99.90;;;;;;5074602;28;20029;-53
2022/05/21 02:46:44;;;;;;;13.40;7.90;;;12.00;99.90;;;;;;5074540;28;20044;-53
2022/05/21 02:49:10;;;;;;;15.70;8.25;;;12.00;99.90;;;;;;5074817;28;20028;-53
2022/05/21 02:51:36;;;;;;;15.75;9.57;;;12.00;99.90;;;;;;5074389;28;20043;-53
2022/05/21 02:54:03;;;;;;;15.70;9.05;;;12.00;99.90;;;;;;5074552;28;20024;-53
2022/05/21 02:56:29;;;;;;;17.90;9.45;;;12.00;99.90;;;;;;5074459;28;20509;-53
2022/05/21 02:58:55;;;;;;;18.17;8.82;;;12.00;99.90;;;;;;5074429;28;20032;-53
2022/05/21 03:01:21;;;;;;;15.93;9.18;;;11.90;99.90;;;;;;5074472;28;20039;-53
2022/05/21 03:03:46;;;;;;;14.70;8.90;;;11.90;99.90;;;;;;5074347;28;20042;-53
2022/05/21 03:06:12;;;;;;;18.00;8.82;;;11.80;99.90;;;;;;5076002;28;20024;-53
2022/05/21 03:11:25;;;;;;;19.70;10.82;;;11.80;99.90;;;;;;5078358;28;20039;-53
2022/05/21 03:13:50;;;;;;;24.02;12.10;;;11.80;99.90;;;;;;5078422;28;20502;-53
2022/05/21 03:16:16;;;;;;;23.88;10.95;;;11.80;99.90;;;;;;5078349;28;20056;-53
2022/05/21 03:18:42;;;;;;;21.17;10.85;;;11.70;99.90;;;;;;5078251;28;20107;-53
2022/05/21 03:21:08;;;;;;;23.20;10.85;;;11.70;99.90;;;;;;5078325;28;20492;-53
2022/05/21 03:23:34;;;;;;;24.25;10.75;;;11.70;99.90;;;;;;5078207;28;20028;-53
2022/05/21 03:26:01;;;;;;;24.13;11.20;;;11.80;99.90;;;;;;5078091;28;20036;-53
2022/05/21 03:28:28;;;;;;;20.63;10.75;;;11.80;99.90;;;;;;5078135;28;20037;-53
2022/05/21 03:30:54;;;;;;;19.17;9.38;;;11.80;99.90;;;;;;5078101;28;20029;-53
2022/05/21 03:33:20;;;;;;;19.00;9.70;;;11.80;99.90;;;;;;5077884;28;20043;-53
2022/05/21 03:35:47;;;;;;;13.88;9.43;;;11.80;99.90;;;;;;5077895;28;20351;-54
2022/05/21 03:38:14;;;;;;;17.80;9.57;;;11.80;99.90;;;;;;5077777;28;20024;-53
2022/05/21 03:40:41;;;;;;;16.23;10.02;;;11.80;99.90;;;;;;5077586;28;20569;-53
2022/05/21 03:43:09;;;;;;;21.77;10.57;;;11.80;99.90;;;;;;5077748;28;20100;-53
2022/05/21 03:45:35;;;;;;;22.67;10.98;;;11.80;99.90;;;;;;5077797;28;20120;-53
2022/05/21 03:48:01;;;;;;;26.00;11.68;;;11.80;99.90;;;;;;5077615;28;20514;-53
2022/05/21 03:50:27;;;;;;;25.05;10.07;;;11.80;99.90;;;;;;5077750;28;20075;-53
2022/05/21 03:52:53;;;;;;;38.38;13.20;;;11.90;99.90;;;;;;5077710;28;20108;-53
2022/05/21 03:55:19;;;;;;;24.75;11.35;;;11.90;99.90;;;;;;5077502;28;20071;-53
2022/05/21 03:57:45;;;;;;;16.20;10.63;;;12.00;99.90;;;;;;5077531;28;20047;-53
2022/05/21 04:00:14;;;;;;;20.02;10.50;;;11.90;99.90;;;;;;5077734;28;20020;-53
2022/05/21 04:02:42;;;;;;;25.05;10.65;;;12.00;99.90;;;;;;5077468;28;20100;-53
2022/05/21 04:05:10;;;;;;;27.38;11.32;;;12.00;99.90;;;;;;5077382;28;20497;-53
2022/05/21 04:07:37;;;;;;;32.08;12.95;;;12.00;99.90;;;;;;5077285;28;20025;-53
2022/05/21 04:10:03;;;;;;;27.95;11.75;;;12.10;99.90;;;;;;5077253;28;20047;-53
2022/05/21 04:12:29;;;;;;;29.92;10.75;;;12.20;99.90;;;;;;5077326;28;20059;-53
2022/05/21 04:14:56;;;;;;;22.67;11.05;;;12.30;99.90;;;;;;5077364;28;20025;-53
2022/05/21 04:17:22;;;;;;;23.00;11.00;;;12.40;99.90;;;;;;5075849;28;20527;-53
2022/05/21 04:19:48;;;;;;;19.08;11.43;;;12.40;99.90;;;;;;5077318;28;20024;-53
2022/05/21 04:22:13;;;;;;;26.27;11.30;;;12.50;99.90;;;;;;5077248;28;20025;-53
2022/05/21 04:24:39;;;;;;;24.67;11.43;;;12.60;99.90;;;;;;5077123;28;20727;-53
2022/05/21 04:27:09;;;;;;;32.65;12.80;;;12.70;99.90;;;;;;5077499;28;20025;-53
2022/05/21 04:29:36;;;;;;;18.80;10.23;;;12.90;99.90;;;;;;5076816;28;20115;-53
2022/05/21 04:32:02;;;;;;;29.40;16.85;;;12.90;99.90;;;;;;5077012;28;20028;-53
2022/05/21 04:34:28;;;;;;;53.00;32.72;;;13.10;99.90;;;;;;5076962;28;20029;-53
2022/05/21 04:36:54;;;;;;;37.33;21.35;;;13.20;99.90;;;;;;5076585;28;20105;-53
2022/05/21 04:39:20;;;;;;;27.40;16.20;;;13.30;99.90;;;;;;5076898;28;20060;-53
2022/05/21 04:41:46;;;;;;;21.98;13.68;;;13.40;99.90;;;;;;5076813;28;20028;-53
2022/05/21 04:44:12;;;;;;;24.73;12.45;;;13.50;99.90;;;;;;5076591;28;20024;-53
2022/05/21 04:46:38;;;;;;;20.73;11.07;;;13.60;99.90;;;;;;5076795;28;20029;-53
2022/05/21 04:49:04;;;;;;;27.65;11.52;;;13.70;99.90;;;;;;5076548;28;20028;-53
2022/05/21 04:51:35;;;;;;;18.40;10.57;;;13.80;99.90;;;;;;5076566;28;20032;-53
2022/05/21 04:54:01;;;;;;;18.45;11.38;;;14.00;99.90;;;;;;5076549;28;20029;-53
2022/05/21 04:56:27;;;;;;;25.77;12.80;;;14.10;99.90;;;;;;5076425;28;20031;-53
2022/05/21 04:58:54;;;;;;;21.92;11.82;;;14.10;99.90;;;;;;5076246;28;20040;-53
2022/05/21 05:01:20;;;;;;;26.63;11.93;;;14.30;99.90;;;;;;5076206;28;20033;-53
2022/05/21 05:03:46;;;;;;;18.55;10.82;;;14.40;99.90;;;;;;5076245;28;20448;-53
2022/05/21 05:06:12;;;;;;;19.52;10.73;;;14.50;99.90;;;;;;5076211;28;20486;-53
2022/05/21 05:08:38;;;;;;;30.50;12.38;;;14.60;99.90;;;;;;5076274;28;20035;-53
2022/05/21 05:11:04;;;;;;;30.40;11.68;;;14.70;99.90;;;;;;5076503;28;20134;-53
2022/05/21 05:13:30;;;;;;;24.08;11.82;;;14.80;99.90;;;;;;5076341;28;20052;-53
2022/05/21 05:15:56;;;;;;;22.70;11.02;;;15.00;99.90;;;;;;5076150;28;20489;-53
2022/05/21 05:18:23;;;;;;;21.05;11.15;;;15.10;99.90;;;;;;5075943;28;20090;-53
2022/05/21 05:20:50;;;;;;;25.50;12.18;;;15.30;99.90;;;;;;5076035;28;20112;-53
2022/05/21 05:23:16;;;;;;;32.13;12.38;;;15.30;99.90;;;;;;5076104;28;20020;-53
2022/05/21 05:25:43;;;;;;;26.02;10.43;;;15.40;99.90;;;;;;5075863;28;20052;-53
2022/05/21 05:28:21;;;;;;;23.92;10.25;;;15.60;99.90;;;;;;5075635;28;20084;-54
2022/05/21 05:30:48;;;;;;;24.55;11.13;;;15.60;99.90;;;;;;5075768;28;20040;-53
2022/05/21 05:33:15;;;;;;;23.13;10.93;;;15.70;99.90;;;;;;5076010;28;20036;-53
2022/05/21 05:35:41;;;;;;;24.13;10.98;;;15.80;99.90;;;;;;5075432;28;20024;-54
2022/05/21 05:38:12;;;;;;;18.83;9.98;;;15.90;99.90;;;;;;5075540;28;20081;-53
2022/05/21 05:40:46;;;;;;;18.02;9.80;;;16.10;99.90;;;;;;5075428;28;20029;-53
2022/05/21 05:43:13;;;;;;;23.30;11.68;;;16.30;99.90;;;;;;5075586;28;20048;-53
2022/05/21 05:45:39;;;;;;;25.42;11.45;;;16.40;99.90;;;;;;5075539;28;20024;-54
2022/05/21 05:48:05;;;;;;;18.83;10.07;;;16.50;99.90;;;;;;5075397;28;20138;-54
2022/05/21 05:50:31;;;;;;;20.90;10.10;;;16.70;99.90;;;;;;5075430;28;20390;-53
2022/05/21 05:53:05;;;;;;;27.98;11.93;;;16.90;99.90;;;;;;5075199;28;20029;-53
2022/05/21 05:55:33;;;;;;;25.38;10.20;;;17.00;99.90;;;;;;5075286;28;20043;-53
2022/05/21 05:57:59;;;;;;;23.17;10.48;;;17.20;99.90;;;;;;5075235;28;20036;-53
2022/05/21 06:00:26;;;;;;;25.25;12.55;;;17.30;99.90;;;;;;5075277;28;20039;-53
2022/05/21 06:02:58;;;;;;;22.67;11.95;;;17.30;99.90;;;;;;5075053;28;20040;-53
2022/05/21 06:05:26;;;;;;;28.02;11.95;;;17.30;99.90;;;;;;5075173;28;20017;-53
2022/05/21 06:07:56;;;;;;;29.75;11.23;;;17.40;99.90;;;;;;5075036;28;20037;-54
2022/05/21 06:10:27;;;;;;;24.98;11.80;;;17.60;99.90;;;;;;5074895;28;20029;-54
2022/05/21 06:12:55;;;;;;;29.38;11.77;;;17.80;99.90;;;;;;5075326;28;20033;-54
2022/05/21 06:15:21;;;;;;;27.33;11.90;;;17.90;99.90;;;;;;5074726;28;20025;-54
2022/05/21 06:17:49;;;;;;;37.83;13.93;;;18.20;99.90;;;;;;5074593;28;20031;-54
2022/05/21 06:20:17;;;;;;;20.45;10.18;;;18.40;99.90;;;;;;5074915;28;20542;-54
2022/05/21 06:22:45;;;;;;;25.00;11.40;;;18.60;99.90;;;;;;5074871;28;20099;-54
2022/05/21 06:25:17;;;;;;;22.25;10.27;;;18.90;99.90;;;;;;5074823;28;20024;-54
2022/05/21 06:27:48;;;;;;;26.48;10.95;;;19.10;99.90;;;;;;5074764;28;20031;-54
2022/05/21 06:30:17;;;;;;;22.27;9.70;;;19.20;99.90;;;;;;5074599;28;20086;-54
2022/05/21 06:32:43;;;;;;;21.60;8.82;;;19.30;99.90;;;;;;5074769;28;20033;-54
2022/05/21 06:35:10;;;;;;;26.38;10.18;;;19.50;99.90;;;;;;5074811;28;20029;-54
2022/05/21 06:37:37;;;;;;;29.25;10.00;;;19.80;99.90;;;;;;5074201;28;20040;-54
2022/05/21 06:40:04;;;;;;;33.08;10.55;;;20.10;99.90;;;;;;5074483;28;20108;-54
2022/05/21 06:42:31;;;;;;;45.38;12.40;;;20.20;97.70;;;;;;5074564;28;20074;-54
2022/05/21 06:44:57;;;;;;;32.80;10.63;;;20.40;95.50;;;;;;5074178;28;20107;-54
2022/05/21 06:47:23;;;;;;;23.42;8.27;;;20.60;93.50;;;;;;5074599;28;20032;-54
2022/05/21 06:49:53;;;;;;;19.58;8.13;;;20.90;92.80;;;;;;5074490;28;20572;-54
2022/05/21 06:52:19;;;;;;;17.08;7.68;;;21.10;78.90;;;;;;5074339;28;20426;-54
2022/05/21 06:54:45;;;;;;;24.75;7.85;;;21.40;82.10;;;;;;5074495;28;20024;-54
2022/05/21 06:57:13;;;;;;;17.13;7.90;;;21.70;71.60;;;;;;5074468;28;20036;-54
2022/05/21 06:59:39;;;;;;;23.48;8.65;;;21.90;71.50;;;;;;5074161;28;20028;-54
2022/05/21 07:02:06;;;;;;;29.23;7.93;;;22.10;75.10;;;;;;5074409;28;20482;-54
2022/05/21 07:07:35;;;;;;;21.92;8.70;;;22.60;71.80;;;;;;5074268;28;20099;-54
2022/05/21 07:10:07;;;;;;;18.67;7.75;;;23.10;67.00;;;;;;5074272;28;20150;-54
2022/05/21 07:12:34;;;;;;;20.13;8.73;;;23.20;69.30;;;;;;5074409;28;20055;-54
2022/05/21 07:15:01;;;;;;;18.02;8.18;;;23.40;71.60;;;;;;5074119;28;20029;-54
2022/05/21 07:17:27;;;;;;;22.50;8.05;;;23.80;66.90;;;;;;5074620;28;20016;-54
2022/05/21 07:19:53;;;;;;;23.67;7.75;;;23.90;66.00;;;;;;5074223;28;20035;-54
2022/05/21 07:22:19;;;;;;;28.17;7.85;;;24.30;69.00;;;;;;5074158;28;20032;-54
2022/05/21 07:24:45;;;;;;;25.60;7.57;;;24.70;64.20;;;;;;5074263;28;20028;-54
2022/05/21 07:27:12;;;;;;;16.65;8.00;;;25.00;64.50;;;;;;5074228;28;20035;-54
2022/05/21 07:29:39;;;;;;;16.60;7.05;;;25.20;60.40;;;;;;5073825;28;20020;-54
2022/05/21 07:32:14;;;;;;;17.90;5.57;;;25.30;57.60;;;;;;5074127;28;20032;-54
2022/05/21 07:34:40;;;;;;;21.77;8.52;;;25.70;57.40;;;;;;5074175;28;20036;-54
2022/05/21 07:37:06;;;;;;;16.95;6.90;;;26.20;60.10;;;;;;5073956;28;20059;-54
2022/05/21 07:39:32;;;;;;;12.63;5.70;;;26.80;59.70;;;;;;5074052;28;20020;-54
2022/05/21 07:41:58;;;;;;;8.32;4.97;;;27.00;54.50;;;;;;5073745;28;20478;-54
2022/05/21 07:44:24;;;;;;;12.95;5.50;;;27.30;52.10;;;;;;5073943;28;20017;-55
2022/05/21 07:46:50;;;;;;;12.05;5.15;;;27.50;52.50;;;;;;5073904;28;20033;-55
2022/05/21 07:49:16;;;;;;;20.13;6.63;;;27.10;51.20;;;;;;5073858;28;20359;-55
2022/05/21 07:51:42;;;;;;;18.38;6.15;;;27.60;51.50;;;;;;5074490;28;20059;-55
2022/05/21 07:54:08;;;;;;;21.48;8.23;;;27.40;50.30;;;;;;5077676;28;20115;-55
2022/05/21 07:56:36;;;;;;;29.83;10.35;;;27.80;51.90;;;;;;5077275;28;20032;-55
2022/05/21 07:59:02;;;;;;;24.58;7.20;;;28.20;52.50;;;;;;5077489;28;20059;-55
2022/05/21 08:01:29;;;;;;;42.58;10.68;;;28.50;49.80;;;;;;5077672;28;20063;-55
2022/05/21 08:03:55;;;;;;;48.50;11.40;;;28.70;50.30;;;;;;5077278;28;20028;-55
2022/05/21 08:06:21;;;;;;;19.90;7.30;;;29.00;49.60;;;;;;5077521;28;20078;-55
2022/05/21 08:08:49;;;;;;;17.02;6.50;;;29.20;51.20;;;;;;5077410;28;20024;-55
2022/05/21 08:11:15;;;;;;;14.57;6.15;;;29.60;51.00;;;;;;5077514;28;20121;-55
2022/05/21 08:13:42;;;;;;;17.65;7.38;;;29.80;48.60;;;;;;5077347;28;20412;-55
2022/05/21 08:16:08;;;;;;;51.70;14.43;;;29.80;48.70;;;;;;5077149;28;20024;-55
2022/05/21 08:18:34;;;;;;;16.20;6.53;;;30.20;49.00;;;;;;5076963;28;20032;-55
2022/05/21 08:21:00;;;;;;;19.88;5.95;;;30.10;49.30;;;;;;5077279;28;20462;-55
2022/05/21 08:28:55;;;;;;;13.75;5.72;;;30.40;47.20;;;;;;5076906;28;20033;-55
2022/05/21 08:31:21;;;;;;;8.93;4.85;;;29.70;45.10;;;;;;5076699;28;20036;-55
2022/05/21 08:33:47;;;;;;;13.20;6.05;;;29.80;45.20;;;;;;5076920;28;20031;-55
2022/05/21 08:36:13;;;;;;;16.92;4.95;;;30.00;46.40;;;;;;5076662;28;20040;-55
2022/05/21 08:38:41;;;;;;;16.40;6.05;;;30.40;44.80;;;;;;5076593;28;20032;-55
2022/05/21 08:41:11;;;;;;;21.45;5.85;;;30.70;45.20;;;;;;5076647;28;20498;-55
2022/05/21 08:44:08;;;;;;;20.02;6.68;;;30.70;46.10;;;;;;5076846;28;20413;-55
2022/05/21 08:46:59;;;;;;;19.33;5.65;;;31.00;45.50;;;;;;5071606;28;20040;-55
2022/05/21 08:49:36;;;;;;;14.88;7.13;;;31.00;45.60;;;;;;5076422;28;20028;-55
2022/05/21 08:52:14;;;;;;;15.38;5.63;;;30.50;46.30;;;;;;5076464;28;20035;-55
2022/05/21 08:54:46;;;;;;;14.65;6.53;;;30.60;46.10;;;;;;5076445;28;20041;-55
2022/05/21 08:57:17;;;;;;;20.67;7.65;;;30.60;47.00;;;;;;5076278;28;20088;-55
2022/05/21 08:59:50;;;;;;;12.77;6.45;;;30.60;46.60;;;;;;5076283;28;20034;-55
2022/05/21 09:02:20;;;;;;;21.17;6.30;;;30.60;45.00;;;;;;5076365;28;20538;-55
2022/05/21 09:04:46;;;;;;;23.27;6.28;;;30.90;46.70;;;;;;5075984;28;20043;-55
2022/05/21 09:07:19;;;;;;;14.98;6.30;;;31.40;45.60;;;;;;5076281;28;20409;-55
2022/05/21 09:09:45;;;;;;;10.82;5.55;;;31.30;45.70;;;;;;5076305;28;20043;-55
2022/05/21 09:12:33;;;;;;;10.48;4.68;;;31.70;46.40;;;;;;5076141;28;20040;-55
2022/05/21 09:15:03;;;;;;;16.35;5.50;;;31.10;43.00;;;;;;5075990;28;20032;-55
2022/05/21 09:17:29;;;;;;;16.27;6.13;;;31.50;44.80;;;;;;5076197;28;20021;-55
2022/05/21 09:20:19;;;;;;;12.07;5.70;;;31.80;45.00;;;;;;5075863;28;20486;-55
2022/05/21 09:22:54;;;;;;;11.02;4.45;;;32.00;44.70;;;;;;5075907;28;20385;-55
2022/05/21 09:25:26;;;;;;;7.95;4.05;;;32.10;44.70;;;;;;5075844;28;20043;-55
2022/05/21 09:28:07;;;;;;;17.58;5.63;;;31.60;44.90;;;;;;5075867;28;20033;-55
2022/05/21 09:30:57;;;;;;;14.18;4.53;;;31.30;45.90;;;;;;5075780;28;20048;-55
2022/05/21 09:33:37;;;;;;;;;;;30.80;47.30;;;;;;5076171;28;20059;-55
2022/05/21 09:36:04;;;;;;;12.15;4.47;;;30.70;48.50;;;;;;5075572;28;19920;-55
2022/05/21 09:38:53;;;;;;;9.55;4.50;;;31.00;48.60;;;;;;5075492;28;20044;-55
2022/05/21 09:41:22;;;;;;;11.95;3.78;;;31.10;47.30;;;;;;5075493;28;20066;-55
2022/05/21 09:47:07;;;;;;;11.65;4.35;;;32.10;47.40;;;;;;5075522;28;20033;-55
2022/05/21 09:49:33;;;;;;;10.02;3.83;;;32.20;45.40;;;;;;5075378;28;20104;-55
2022/05/21 09:52:02;;;;;;;9.90;3.75;;;32.30;46.30;;;;;;5075290;28;20029;-55
2022/05/21 09:54:40;;;;;;;8.38;4.22;;;32.00;44.90;;;;;;5075416;28;20094;-55
2022/05/21 09:57:21;;;;;;;10.43;3.97;;;32.20;46.00;;;;;;5075405;28;20056;-55
2022/05/21 10:00:24;;;;;;;6.57;4.03;;;31.40;45.30;;;;;;5075277;28;20114;-55
2022/05/21 10:02:56;;;;;;;14.48;4.18;;;31.80;46.90;;;;;;5063569;28;20461;-55
2022/05/21 10:05:36;;;;;;;8.05;4.07;;;31.70;46.10;;;;;;5074917;28;20029;-55
2022/05/21 10:11:11;;;;;;;26.35;8.25;;;31.70;45.30;;;;;;5074936;28;20028;-55
2022/05/21 10:13:44;;;;;;;24.35;6.60;;;31.40;47.00;;;;;;5074995;28;20025;-55
2022/05/21 10:16:37;;;;;;;28.75;8.35;;;32.20;47.20;;;;;;5073962;28;20527;-55
2022/05/21 10:19:23;;;;;;;15.55;5.30;;;32.60;47.50;;;;;;5073797;28;20115;-55
2022/05/21 10:22:17;;;;;;;11.10;4.85;;;32.70;44.40;;;;;;5074961;28;20029;-55
2022/05/21 10:24:54;;;;;;;20.58;4.97;;;32.00;46.10;;;;;;5074842;28;20036;-55
2022/05/21 10:27:34;;;;;;;9.88;3.83;;;32.30;44.20;;;;;;5074769;28;20037;-56
2022/05/21 10:30:09;;;;;;;9.98;4.13;;;32.20;44.90;;;;;;5074617;28;20027;-55
2022/05/21 10:33:28;;;;;;;12.00;4.90;;;31.70;45.20;;;;;;5074816;28;20043;-55
2022/05/21 10:36:21;;;;;;;7.07;3.10;;;31.20;45.40;;;;;;5085883;28;20032;-56
2022/05/21 10:39:12;;;;;;;11.77;4.72;;;32.00;44.10;;;;;;5115006;28;20085;-55
2022/05/21 10:42:06;;;;;;;8.85;3.78;;;32.30;44.60;;;;;;5114966;28;20844;-55
2022/05/21 10:44:45;;;;;;;26.60;6.15;;;32.30;43.00;;;;;;5115023;28;20489;-55
2022/05/21 10:47:55;;;;;;;5.85;2.97;;;32.30;44.60;;;;;;5115027;28;20051;-56
2022/05/21 10:50:47;;;;;;;5.55;3.28;;;32.70;43.00;;;;;;5115012;28;20035;-55
2022/05/21 10:53:32;;;;;;;6.95;3.78;;;32.10;42.00;;;;;;5114991;28;20027;-55
2022/05/21 10:56:16;;;;;;;7.95;3.42;;;32.30;43.30;;;;;;5114990;28;20492;-56
2022/05/21 10:59:16;;;;;;;5.05;3.60;;;32.80;42.80;;;;;;5114647;28;20435;-55
2022/05/21 11:01:50;;;;;;;15.20;5.13;;;32.90;44.20;;;;;;5114954;28;20059;-55
2022/05/21 11:04:37;;;;;;;6.10;3.30;;;32.70;43.80;;;;;;5114837;28;20024;-55
2022/05/21 11:07:24;;;;;;;9.07;3.95;;;32.60;42.00;;;;;;5114886;28;20035;-55
2022/05/21 11:10:09;;;;;;;8.80;2.85;;;32.50;43.80;;;;;;5114808;28;20113;-55
2022/05/21 11:12:50;;;;;;;6.70;3.25;;;32.50;42.50;;;;;;5114796;28;20028;-55
2022/05/21 11:15:41;;;;;;;11.85;4.00;;;33.30;43.90;;;;;;5114678;28;20028;-55
2022/05/21 11:18:31;;;;;;;21.20;7.47;;;33.30;43.50;;;;;;5114449;28;20465;-55
2022/05/21 11:21:02;;;;;;;8.77;3.17;;;31.50;43.40;;;;;;5114960;28;20031;-55
2022/05/21 11:23:43;;;;;;;11.60;4.00;;;31.10;44.80;;;;;;5114663;28;20035;-55
2022/05/21 11:26:22;;;;;;;5.15;3.40;;;31.80;45.00;;;;;;5114563;28;20500;-55
2022/05/21 11:29:07;;;;;;;10.75;4.30;;;32.90;43.10;;;;;;5118609;28;20042;-55
2022/05/21 11:37:35;;;;;;;7.32;3.58;;;32.40;45.20;;;;;;5118051;28;20059;-55
2022/05/21 11:40:01;;;;;;;7.60;3.58;;;33.00;46.30;;;;;;5118501;28;20036;-55
2022/05/21 11:42:32;;;;;;;10.02;3.53;;;33.00;45.10;;;;;;5118570;28;20031;-55
2022/05/21 11:45:24;;;;;;;10.75;4.53;;;33.50;44.90;;;;;;5118374;28;20024;-55
2022/05/21 11:48:12;;;;;;;13.77;4.30;;;34.00;44.20;;;;;;5118197;28;20023;-56
2022/05/21 11:50:40;;;;;;;15.07;5.10;;;33.90;42.40;;;;;;5118375;28;20028;-56
2022/05/21 11:53:35;;;;;;;7.30;3.97;;;34.10;45.20;;;;;;5118072;28;20119;-56
2022/05/21 11:56:08;;;;;;;6.43;3.42;;;33.90;41.30;;;;;;5106661;28;20550;-56
2022/05/21 11:58:59;;;;;;;10.23;3.53;;;33.90;41.80;;;;;;5118013;28;20034;-56
2022/05/21 12:01:40;;;;;;;23.27;12.05;;;33.50;40.80;;;;;;5118289;28;20030;-56
2022/05/21 12:04:21;;;;;;;9.00;3.97;;;33.40;42.60;;;;;;5117904;28;20032;-56
2022/05/21 12:06:47;;;;;;;6.40;3.47;;;33.90;44.40;;;;;;5117938;28;20491;-55
2022/05/21 12:09:26;;;;;;;8.60;3.63;;;33.40;42.10;;;;;;5118076;28;20027;-55
2022/05/21 12:12:22;;;;;;;10.52;4.25;;;33.30;43.10;;;;;;5117885;28;20059;-55
2022/05/21 12:15:10;;;;;;;4.38;3.05;;;32.60;43.40;;;;;;5118003;28;20073;-55
2022/05/21 12:18:03;;;;;;;8.70;3.33;;;33.00;43.30;;;;;;5117948;28;20039;-56
2022/05/21 12:20:44;;;;;;;5.18;3.17;;;33.50;43.20;;;;;;5117751;28;20085;-55
2022/05/21 12:23:40;;;;;;;16.42;4.68;;;33.60;42.20;;;;;;5117501;28;20031;-55
2022/05/21 12:26:19;;;;;;;9.70;3.28;;;33.80;40.80;;;;;;5117677;28;20034;-55
2022/05/21 12:29:12;;;;;;;10.30;3.67;;;33.30;43.50;;;;;;5117463;28;20073;-56
2022/05/21 12:31:48;;;;;;;9.90;3.50;;;33.80;40.90;;;;;;5117592;28;20252;-55
2022/05/21 12:34:20;;;;;;;15.43;3.13;;;33.90;40.00;;;;;;5117496;28;20034;-55
2022/05/21 12:37:16;;;;;;;5.25;2.15;;;32.70;43.20;;;;;;5117294;28;20484;-55
2022/05/21 12:40:07;;;;;;;7.15;2.53;;;33.00;40.50;;;;;;5116352;28;20035;-55
2022/05/21 12:42:49;;;;;;;10.90;2.50;;;32.90;39.90;;;;;;5117380;28;20024;-55
2022/05/21 12:45:45;;;;;;;8.77;2.72;;;33.10;41.10;;;;;;5117165;28;20392;-55
2022/05/21 12:48:29;;;;;;;6.70;2.60;;;32.70;39.20;;;;;;5117227;28;20499;-55
2022/05/21 12:51:01;;;;;;;10.52;3.45;;;32.50;40.60;;;;;;5117288;28;20030;-55
2022/05/21 12:53:39;;;;;;;9.70;3.97;;;32.10;42.20;;;;;;5117209;28;20046;-55
2022/05/21 12:56:14;;;;;;;7.55;3.05;;;32.30;41.20;;;;;;5117083;28;20070;-56
2022/05/21 12:58:40;;;;;;;4.40;2.20;;;32.00;39.50;;;;;;5117051;28;20520;-55
2022/05/21 13:01:07;;;;;;;7.28;2.42;;;32.20;41.40;;;;;;5117081;28;20067;-55
2022/05/21 13:03:35;;;;;;;5.93;2.22;;;32.70;42.40;;;;;;5116977;28;20023;-56
2022/05/21 13:06:08;;;;;;;9.02;2.35;;;32.60;39.90;;;;;;5117145;28;20034;-56
2022/05/21 13:08:39;;;;;;;13.15;3.00;;;32.80;41.50;;;;;;5116983;28;20045;-56
2022/05/21 13:11:11;;;;;;;8.93;3.10;;;33.00;40.50;;;;;;5116668;28;20031;-55
2022/05/21 13:13:40;;;;;;;9.57;2.60;;;32.50;39.90;;;;;;5116778;28;20050;-56
2022/05/21 13:16:18;;;;;;;5.03;2.60;;;32.20;39.70;;;;;;5116684;28;20077;-55
2022/05/21 13:19:16;;;;;;;5.07;2.78;;;32.50;41.10;;;;;;5116560;28;20548;-56
2022/05/21 13:21:57;;;;;;;5.00;2.10;;;32.70;41.20;;;;;;5092561;28;20028;-56
2022/05/21 13:24:34;;;;;;;6.03;1.90;;;32.80;40.10;;;;;;5116515;28;20041;-56
2022/05/21 13:27:13;;;;;;;13.50;4.03;;;31.80;40.90;;;;;;5116955;28;20111;-55